Portada
METAR-TAF:

METAR-TAF

Aeroports :

Meknès, Marroc

latitud: 33-53N, longitud: 005-32W, altitud: 576 m

Observació

L'informe es va fer fa 37 minuts, a les 18:00 UTC
Vent 9 kt del Nord/Nord-Oest, variant entre Oest/Nord-Oest i Nord
Temperatura 25°C
Humitat 57%
Pressió 1018 hPa
Visibilitat 10 km o més
sense núvols per sota de 1500 mi sense presència de cumulonimbus.

METAR: GMFM 141800Z 33009KT 290V360 CAVOK 25/16 Q1018 NOSIG

Hora: 19:37 (18:37 UTC)

Pronòstic

L'informe es va fer fa 1 hora i 37 minuts, a les 17:00 UTC
Pronòstic vàlid del 14 a les 18 UTC al 15 a les 24 UTC
Vent 7 kt del Nord/Nord-Oest
Visibilitat 10 km o més
sense núvols per sota de 1500 mi sense presència de cumulonimbus.
Temporalment
l' 15 a les 04 UTC al 15 a les 08 UTC
Visibilitat: 3000 m
Cel ennuvolat a una alçada de 1000 ft
boirina
Evolucionant progressivament
l' 15 a les 13 UTC al 15 a les 15 UTC
Vent 10 kt del Nord-Oest

TAF: GMFM 141700Z 1418/1524 34007KT CAVOK TEMPO 1504/1508 3000 BR BKN010 BECMG 1513/1515 32010KT

Observacions i pronòstics meteorològics de més de 4000 aeroports (METAR i TAF).

Les estacions disponibles són els punts grocs i vermells al mapa.

Posi el ratolí al punt desitjat per veure el nom de l'estació.

Feu clic per veure les observacions i els pronòstics meteorològics.

Per canviar el mapa: feu clic els botons verds amb una creu de color negre per apropar; al botó verd amb un guió per allunyar la imatge; o en les fletxes verdes per a mapes adjacents.


METAR-TAF: